createdAt,value
2022-10-17T03:59:00.033Z,1011.47
2022-10-17T03:59:59.982Z,1011.43
2022-10-17T04:01:00.027Z,1011.47
2022-10-17T04:01:59.988Z,1011.44
2022-10-17T04:03:00.014Z,1011.47
2022-10-17T04:03:59.996Z,1011.51
2022-10-17T04:04:59.995Z,1011.51
2022-10-17T04:05:59.992Z,1011.49
2022-10-17T04:07:00.004Z,1011.43
2022-10-17T04:08:03.877Z,1011.44
2022-10-17T04:09:00.000Z,1011.46
2022-10-17T04:10:00.011Z,1011.51
2022-10-17T04:11:00.000Z,1011.50
2022-10-17T04:12:00.081Z,1011.57
2022-10-17T04:12:58.331Z,1011.54
2022-10-17T04:14:00.021Z,1011.55
2022-10-17T04:15:00.031Z,1011.55
2022-10-17T04:16:00.003Z,1011.59
2022-10-17T04:17:00.027Z,1011.58
2022-10-17T04:18:00.030Z,1011.58
2022-10-17T04:18:58.286Z,1011.59
2022-10-17T04:20:00.045Z,1011.59
2022-10-17T04:21:00.007Z,1011.54
2022-10-17T04:22:00.007Z,1011.58
2022-10-17T04:22:59.305Z,1011.54
2022-10-17T04:24:00.007Z,1011.55
2022-10-17T04:24:59.530Z,1011.55
2022-10-17T04:25:59.518Z,1011.52
2022-10-17T04:26:58.264Z,1011.50
2022-10-17T04:28:00.013Z,1011.55
2022-10-17T04:28:58.260Z,1011.51
2022-10-17T04:30:00.084Z,1011.52
2022-10-17T04:30:58.264Z,1011.55
2022-10-17T04:31:58.280Z,1011.51
2022-10-17T04:32:58.241Z,1011.52
2022-10-17T04:33:58.234Z,1011.50
2022-10-17T04:35:00.534Z,1011.50
2022-10-17T04:35:58.238Z,1011.52
2022-10-17T04:36:58.229Z,1011.47
2022-10-17T04:37:58.223Z,1011.54
2022-10-17T04:38:59.041Z,1011.52
2022-10-17T04:40:00.036Z,1011.50
2022-10-17T04:40:58.219Z,1011.53
2022-10-17T04:41:58.207Z,1011.49
2022-10-17T04:42:58.204Z,1011.52
2022-10-17T04:43:58.210Z,1011.48
2022-10-17T04:44:58.206Z,1011.47
2022-10-17T04:45:59.535Z,1011.51
2022-10-17T04:47:00.046Z,1011.54
2022-10-17T04:47:58.193Z,1011.51
2022-10-17T04:49:00.041Z,1011.50
2022-10-17T04:49:59.208Z,1011.51
2022-10-17T04:50:59.193Z,1011.51
2022-10-17T04:51:58.183Z,1011.56
2022-10-17T04:53:00.045Z,1011.56
2022-10-17T04:53:58.175Z,1011.56
2022-10-17T04:55:00.058Z,1011.57
2022-10-17T04:55:59.173Z,1011.57
2022-10-17T04:57:00.057Z,1011.56
2022-10-17T04:57:58.165Z,1011.57
2022-10-17T04:59:00.032Z,1011.54
2022-10-17T05:00:00.110Z,1011.56
2022-10-17T05:01:00.082Z,1011.54
2022-10-17T05:01:58.152Z,1011.55
2022-10-17T05:03:00.053Z,1011.56
2022-10-17T05:04:00.052Z,1011.54
2022-10-17T05:05:00.069Z,1011.55
2022-10-17T05:06:00.069Z,1011.54
2022-10-17T05:06:58.202Z,1011.52
2022-10-17T05:08:00.049Z,1011.52
2022-10-17T05:08:59.133Z,1011.55
2022-10-17T05:10:00.058Z,1011.56
2022-10-17T05:11:58.117Z,1011.57
2022-10-17T05:12:59.136Z,1011.56
2022-10-17T05:13:58.114Z,1011.58
2022-10-17T05:15:00.071Z,1011.53
2022-10-17T05:15:59.127Z,1011.54
2022-10-17T05:16:58.108Z,1011.54
2022-10-17T05:18:00.099Z,1011.56
2022-10-17T05:19:00.081Z,1011.52
2022-10-17T05:20:00.056Z,1011.50
2022-10-17T05:21:00.129Z,1011.52
2022-10-17T05:22:00.055Z,1011.46
2022-10-17T05:23:00.067Z,1011.44
2022-10-17T05:24:00.102Z,1011.44
2022-10-17T05:25:00.059Z,1011.43
2022-10-17T05:26:00.084Z,1011.50
2022-10-17T05:27:00.065Z,1011.49
2022-10-17T05:28:00.080Z,1011.47
2022-10-17T05:29:00.137Z,1011.45
2022-10-17T05:29:59.060Z,1011.47
2022-10-17T05:30:59.571Z,1011.44
2022-10-17T05:31:58.141Z,1011.42
2022-10-17T05:32:59.577Z,1011.45
2022-10-17T05:33:59.566Z,1011.44
2022-10-17T05:34:59.574Z,1011.40
2022-10-17T05:35:59.601Z,1011.42
2022-10-17T05:36:58.049Z,1011.46
2022-10-17T05:37:59.592Z,1011.46
2022-10-17T05:38:59.568Z,1011.48
2022-10-17T05:39:59.567Z,1011.44
2022-10-17T05:40:59.599Z,1011.44
2022-10-17T05:41:59.578Z,1011.41
2022-10-17T05:42:59.570Z,1011.43
2022-10-17T05:44:03.064Z,1011.45
2022-10-17T05:44:59.585Z,1011.39
2022-10-17T05:45:59.060Z,1011.38
2022-10-17T05:46:58.017Z,1011.44
2022-10-17T05:47:58.040Z,1011.46
2022-10-17T05:48:59.091Z,1011.46
2022-10-17T05:49:59.580Z,1011.44
2022-10-17T05:50:59.594Z,1011.41
2022-10-17T05:51:59.582Z,1011.42
2022-10-17T05:53:00.100Z,1011.37
2022-10-17T05:53:59.016Z,1011.35
2022-10-17T05:54:59.584Z,1011.32
2022-10-17T05:55:59.585Z,1011.29
2022-10-17T05:56:59.606Z,1011.30
2022-10-17T05:57:59.678Z,1011.28
2022-10-17T05:59:01.090Z,1011.29
2022-10-17T05:59:59.599Z,1011.32
2022-10-17T06:00:59.007Z,1011.33
2022-10-17T06:01:58.012Z,1011.37
2022-10-17T06:02:59.590Z,1011.35
2022-10-17T06:03:59.597Z,1011.41
2022-10-17T06:04:59.611Z,1011.39
2022-10-17T06:05:59.605Z,1011.39
2022-10-17T06:06:57.975Z,1011.41
2022-10-17T06:08:01.903Z,1011.36
2022-10-17T06:08:57.957Z,1011.42
2022-10-17T06:09:59.608Z,1011.40
2022-10-17T06:10:57.951Z,1011.46
2022-10-17T06:11:59.609Z,1011.48
2022-10-17T06:12:58.956Z,1011.44
2022-10-17T06:13:59.603Z,1011.39
2022-10-17T06:15:00.172Z,1011.41
2022-10-17T06:15:58.942Z,1011.45
2022-10-17T06:16:58.939Z,1011.54
2022-10-17T06:17:59.130Z,1011.58
2022-10-17T06:18:57.941Z,1011.61
2022-10-17T06:19:59.613Z,1011.61
2022-10-17T06:21:00.123Z,1011.63
2022-10-17T06:21:57.919Z,1011.63
2022-10-17T06:22:59.642Z,1011.65
2022-10-17T06:23:57.914Z,1011.71
2022-10-17T06:24:59.609Z,1011.73
2022-10-17T06:25:59.123Z,1011.72
2022-10-17T06:26:57.905Z,1011.72
2022-10-17T06:27:59.614Z,1011.72
2022-10-17T06:28:59.197Z,1011.72
2022-10-17T06:29:59.615Z,1011.74
2022-10-17T06:30:59.621Z,1011.74
2022-10-17T06:31:57.897Z,1011.75
2022-10-17T06:32:59.630Z,1011.78
2022-10-17T06:33:59.647Z,1011.81
2022-10-17T06:34:57.961Z,1011.80
2022-10-17T06:35:59.619Z,1011.83
2022-10-17T06:36:58.926Z,1011.84
2022-10-17T06:37:59.645Z,1011.84
2022-10-17T06:38:59.670Z,1011.87
2022-10-17T06:39:59.629Z,1011.90
2022-10-17T06:40:59.620Z,1011.94
2022-10-17T06:41:57.862Z,1011.94
2022-10-17T06:42:57.877Z,1011.98
2022-10-17T06:43:59.638Z,1011.94
2022-10-17T06:44:59.142Z,1011.97
2022-10-17T06:46:57.850Z,1012.05
2022-10-17T06:47:57.862Z,1012.07
2022-10-17T06:48:59.140Z,1012.10
2022-10-17T06:49:59.644Z,1012.05
2022-10-17T06:50:58.863Z,1012.07
2022-10-17T06:51:59.629Z,1012.05
2022-10-17T06:52:59.632Z,1012.04
2022-10-17T06:53:59.635Z,1012.02
2022-10-17T06:54:59.730Z,1012.02
2022-10-17T06:55:59.643Z,1012.01
2022-10-17T06:56:59.635Z,1011.98
2022-10-17T06:57:59.648Z,1011.99
2022-10-17T06:58:58.826Z,1012.03
2022-10-17T06:59:59.642Z,1012.06
2022-10-17T07:01:00.969Z,1012.04
2022-10-17T07:01:57.807Z,1012.10
2022-10-17T07:02:59.642Z,1012.12
2022-10-17T07:03:59.641Z,1012.11
2022-10-17T07:04:59.670Z,1012.10
2022-10-17T07:05:59.701Z,1012.12
2022-10-17T07:06:59.671Z,1012.14
2022-10-17T07:07:59.646Z,1012.15
2022-10-17T07:08:59.646Z,1012.19
2022-10-17T07:09:59.651Z,1012.22
2022-10-17T07:10:59.675Z,1012.28
2022-10-17T07:11:59.645Z,1012.23
2022-10-17T07:12:59.647Z,1012.26
2022-10-17T07:13:59.653Z,1012.24
2022-10-17T07:14:59.664Z,1012.28
2022-10-17T07:15:59.173Z,1012.26
2022-10-17T07:16:59.647Z,1012.27
2022-10-17T07:17:59.674Z,1012.28
2022-10-17T07:18:57.787Z,1012.28
2022-10-17T07:19:57.770Z,1012.26
2022-10-17T07:20:57.763Z,1012.31
2022-10-17T07:21:59.664Z,1012.31
2022-10-17T07:22:58.758Z,1012.34
2022-10-17T07:23:59.674Z,1012.32
2022-10-17T07:24:59.662Z,1012.37
2022-10-17T07:25:59.670Z,1012.35
2022-10-17T07:26:59.669Z,1012.41
2022-10-17T07:27:59.670Z,1012.40
2022-10-17T07:28:59.747Z,1012.39
2022-10-17T07:29:59.665Z,1012.43
2022-10-17T07:30:59.679Z,1012.47
2022-10-17T07:31:59.693Z,1012.51
2022-10-17T07:32:57.742Z,1012.54
2022-10-17T07:33:59.713Z,1012.52
2022-10-17T07:34:59.729Z,1012.49
2022-10-17T07:35:59.699Z,1012.48
2022-10-17T07:36:59.667Z,1012.51
2022-10-17T07:37:57.727Z,1012.52
2022-10-17T07:38:59.692Z,1012.53
2022-10-17T07:39:59.181Z,1012.48
2022-10-17T07:40:57.717Z,1012.47
2022-10-17T07:41:57.712Z,1012.45
2022-10-17T07:42:57.722Z,1012.43
2022-10-17T07:43:57.723Z,1012.49
2022-10-17T07:44:59.683Z,1012.51
2022-10-17T07:45:57.711Z,1012.49
2022-10-17T07:46:57.700Z,1012.49
2022-10-17T07:47:57.704Z,1012.47
2022-10-17T07:48:57.706Z,1012.56
2022-10-17T07:49:57.777Z,1012.53
2022-10-17T07:50:59.194Z,1012.55
2022-10-17T07:51:57.691Z,1012.57
2022-10-17T07:52:57.695Z,1012.63
2022-10-17T07:53:59.190Z,1012.64
2022-10-17T07:54:58.695Z,1012.59
2022-10-17T07:55:57.706Z,1012.56
2022-10-17T07:56:59.197Z,1012.56
2022-10-17T07:57:57.676Z,1012.54
2022-10-17T07:59:00.822Z,1012.56
2022-10-17T07:59:58.678Z,1012.59
2022-10-17T08:00:59.307Z,1012.62
2022-10-17T08:01:59.203Z,1012.54
2022-10-17T08:02:59.197Z,1012.57
2022-10-17T08:03:59.188Z,1012.56
2022-10-17T08:04:59.240Z,1012.62
2022-10-17T08:05:59.202Z,1012.58
2022-10-17T08:07:11.334Z,1012.58
2022-10-17T08:07:59.209Z,1012.57
2022-10-17T08:08:59.304Z,1012.54
2022-10-17T08:09:59.278Z,1012.59
2022-10-17T08:10:57.651Z,1012.55
2022-10-17T08:11:59.208Z,1012.57
2022-10-17T08:12:59.210Z,1012.54
2022-10-17T08:13:57.658Z,1012.50
2022-10-17T08:14:57.688Z,1012.48
2022-10-17T08:15:58.721Z,1012.49
2022-10-17T08:16:59.225Z,1012.48
2022-10-17T08:17:59.217Z,1012.52
2022-10-17T08:18:57.706Z,1012.51
2022-10-17T08:19:58.635Z,1012.53
2022-10-17T08:21:00.213Z,1012.51
2022-10-17T08:21:59.223Z,1012.50
2022-10-17T08:22:57.653Z,1012.47
2022-10-17T08:23:58.720Z,1012.48
2022-10-17T08:24:58.633Z,1012.45
2022-10-17T08:25:59.210Z,1012.45
2022-10-17T08:26:59.211Z,1012.48
2022-10-17T08:27:59.263Z,1012.51
2022-10-17T08:28:59.279Z,1012.46
2022-10-17T08:29:59.215Z,1012.46
2022-10-17T08:30:59.240Z,1012.46
2022-10-17T08:32:01.167Z,1012.44
2022-10-17T08:32:59.215Z,1012.44
2022-10-17T08:33:59.279Z,1012.41
2022-10-17T08:34:59.222Z,1012.42
2022-10-17T08:35:59.274Z,1012.41
2022-10-17T08:36:59.270Z,1012.39
2022-10-17T08:37:59.220Z,1012.41
2022-10-17T08:38:59.228Z,1012.38
2022-10-17T08:39:59.226Z,1012.38
2022-10-17T08:40:59.226Z,1012.35
2022-10-17T08:41:59.247Z,1012.36
2022-10-17T08:42:57.596Z,1012.37
2022-10-17T08:43:57.593Z,1012.45
2022-10-17T08:44:57.618Z,1012.46
2022-10-17T08:45:59.243Z,1012.49
2022-10-17T08:46:59.251Z,1012.47
2022-10-17T08:47:57.589Z,1012.47
2022-10-17T08:48:57.594Z,1012.47
2022-10-17T08:49:57.598Z,1012.47
2022-10-17T08:50:57.592Z,1012.47
2022-10-17T08:51:57.583Z,1012.49
2022-10-17T08:52:59.247Z,1012.51
2022-10-17T08:53:57.619Z,1012.55
2022-10-17T08:54:57.584Z,1012.53
2022-10-17T08:55:57.580Z,1012.57
2022-10-17T08:56:57.581Z,1012.56
2022-10-17T08:57:59.258Z,1012.56
2022-10-17T08:58:57.614Z,1012.59
2022-10-17T08:59:59.241Z,1012.60
2022-10-17T09:00:59.254Z,1012.62
2022-10-17T09:01:59.266Z,1012.56
2022-10-17T09:02:59.360Z,1012.54
2022-10-17T09:03:59.244Z,1012.47
2022-10-17T09:04:57.573Z,1012.55
2022-10-17T09:05:59.244Z,1012.56
2022-10-17T09:06:57.566Z,1012.55
2022-10-17T09:07:59.280Z,1012.52
2022-10-17T09:08:57.563Z,1012.53
2022-10-17T09:09:59.251Z,1012.50
2022-10-17T09:10:57.582Z,1012.47
2022-10-17T09:11:59.262Z,1012.54
2022-10-17T09:13:02.788Z,1012.53
2022-10-17T09:13:58.562Z,1012.57
2022-10-17T09:14:58.763Z,1012.56
2022-10-17T09:15:57.562Z,1012.59
2022-10-17T09:16:57.557Z,1012.57
2022-10-17T09:17:57.549Z,1012.62
2022-10-17T09:18:58.810Z,1012.65
2022-10-17T09:19:57.557Z,1012.63
2022-10-17T09:20:57.558Z,1012.66
2022-10-17T09:21:59.283Z,1012.69
2022-10-17T09:24:08.941Z,1012.70
2022-10-17T09:24:57.726Z,1012.72
2022-10-17T09:25:57.549Z,1012.72
2022-10-17T09:26:57.541Z,1012.71
2022-10-17T09:27:57.543Z,1012.71
2022-10-17T09:28:59.361Z,1012.67
2022-10-17T09:29:57.550Z,1012.65
2022-10-17T09:30:57.552Z,1012.66
2022-10-17T09:32:59.281Z,1012.65
2022-10-17T09:33:59.288Z,1012.68
2022-10-17T09:34:57.546Z,1012.68
2022-10-17T09:35:57.532Z,1012.70
2022-10-17T09:36:57.541Z,1012.73
2022-10-17T09:37:59.274Z,1012.77
2022-10-17T09:38:59.298Z,1012.75
2022-10-17T09:39:59.286Z,1012.84
2022-10-17T09:40:59.329Z,1012.88
2022-10-17T09:41:59.276Z,1012.86
2022-10-17T09:42:59.291Z,1012.85
2022-10-17T09:43:59.295Z,1012.84
2022-10-17T09:44:58.535Z,1012.89
2022-10-17T09:45:58.525Z,1012.86
2022-10-17T09:46:57.534Z,1012.84
2022-10-17T09:47:59.564Z,1012.85
2022-10-17T09:48:59.345Z,1012.86
2022-10-17T09:49:58.523Z,1012.87
2022-10-17T09:51:08.309Z,1012.83
2022-10-17T09:51:59.316Z,1012.88
2022-10-17T09:52:57.515Z,1012.83
2022-10-17T09:53:57.538Z,1012.84
2022-10-17T09:54:57.527Z,1012.82
2022-10-17T09:55:57.515Z,1012.79
2022-10-17T09:56:59.322Z,1012.79
2022-10-17T09:57:58.521Z,1012.77
2022-10-17T09:58:59.318Z,1012.79
2022-10-17T09:59:59.392Z,1012.80
2022-10-17T10:00:59.363Z,1012.81
2022-10-17T10:01:59.312Z,1012.84
2022-10-17T10:13:06.533Z,1012.90
2022-10-17T10:14:05.411Z,1012.90
2022-10-17T10:15:07.018Z,1012.96
2022-10-17T10:16:06.402Z,1013.00
2022-10-17T10:17:05.398Z,1012.98
2022-10-17T10:18:05.396Z,1013.03
2022-10-17T10:19:08.424Z,1013.05
2022-10-17T10:20:07.012Z,1013.05
2022-10-17T10:21:06.391Z,1013.09
2022-10-17T10:22:06.998Z,1013.17
2022-10-17T10:23:06.398Z,1013.18
2022-10-17T10:24:07.017Z,1013.19
2022-10-17T10:25:06.999Z,1013.20
2022-10-17T10:26:07.008Z,1013.25
2022-10-17T10:27:07.017Z,1013.32
2022-10-17T10:28:07.030Z,1013.34
2022-10-17T10:29:07.119Z,1013.42
2022-10-17T10:30:07.022Z,1013.42
2022-10-17T10:31:07.007Z,1013.41
2022-10-17T10:32:07.024Z,1013.41
2022-10-17T10:33:07.009Z,1013.43
2022-10-17T10:34:07.027Z,1013.43
2022-10-17T10:35:05.384Z,1013.44
2022-10-17T10:36:07.020Z,1013.38
2022-10-17T10:37:07.030Z,1013.39
2022-10-17T10:38:07.038Z,1013.36
2022-10-17T10:39:05.442Z,1013.30
2022-10-17T10:40:06.393Z,1013.38
2022-10-17T10:41:06.389Z,1013.40
2022-10-17T10:42:05.383Z,1013.37
2022-10-17T10:43:07.040Z,1013.42
2022-10-17T10:44:07.015Z,1013.41
2022-10-17T10:45:09.291Z,1013.43
2022-10-17T10:46:07.020Z,1013.52
2022-10-17T10:47:07.025Z,1013.57
2022-10-17T10:48:07.028Z,1013.60
2022-10-17T10:49:07.043Z,1013.66
2022-10-17T10:50:07.025Z,1013.70
2022-10-17T10:51:07.035Z,1013.69
2022-10-17T10:52:07.040Z,1013.68
2022-10-17T10:53:07.047Z,1013.68
2022-10-17T10:54:07.052Z,1013.74
2022-10-17T10:55:07.031Z,1013.70
2022-10-17T10:56:07.059Z,1013.61
2022-10-17T10:57:07.028Z,1013.61
2022-10-17T10:58:07.036Z,1013.63
2022-10-17T10:59:07.061Z,1013.56
2022-10-17T11:00:07.050Z,1013.54
2022-10-17T11:01:07.198Z,1013.55
2022-10-17T11:02:07.038Z,1013.54
2022-10-17T11:03:10.573Z,1013.55
2022-10-17T11:04:07.064Z,1013.56
2022-10-17T11:05:07.042Z,1013.63
2022-10-17T11:06:07.067Z,1013.70
2022-10-17T11:07:07.055Z,1013.73
2022-10-17T11:08:07.076Z,1013.76
2022-10-17T11:09:07.082Z,1013.78
2022-10-17T11:10:07.091Z,1013.77
2022-10-17T11:11:07.050Z,1013.75
2022-10-17T11:12:05.397Z,1013.77
2022-10-17T11:13:05.385Z,1013.84
2022-10-17T11:14:08.786Z,1013.82
2022-10-17T11:15:07.081Z,1013.86
2022-10-17T11:16:07.059Z,1013.83
2022-10-17T11:17:07.069Z,1013.96
2022-10-17T11:18:07.057Z,1013.94
2022-10-17T11:19:07.058Z,1014.00
2022-10-17T11:20:07.080Z,1014.01
2022-10-17T11:21:07.067Z,1014.07
2022-10-17T11:22:07.083Z,1014.13
2022-10-17T11:23:07.060Z,1014.12
2022-10-17T11:24:09.106Z,1014.20
2022-10-17T11:25:07.116Z,1014.23
2022-10-17T11:26:07.067Z,1014.24
2022-10-17T11:27:07.064Z,1014.23
2022-10-17T11:28:07.082Z,1014.22
2022-10-17T11:29:07.150Z,1014.23
2022-10-17T11:30:06.398Z,1014.25
2022-10-17T11:31:07.250Z,1014.31
2022-10-17T11:32:05.385Z,1014.27
2022-10-17T11:33:07.108Z,1014.33
2022-10-17T11:34:05.402Z,1014.33
2022-10-17T11:35:05.387Z,1014.33
2022-10-17T11:36:05.390Z,1014.37
2022-10-17T11:37:05.384Z,1014.33
2022-10-17T11:38:07.088Z,1014.34
2022-10-17T11:39:05.404Z,1014.33
2022-10-17T11:40:06.587Z,1014.23
2022-10-17T11:41:07.099Z,1014.23
2022-10-17T11:42:05.389Z,1014.16
2022-10-17T11:43:05.388Z,1014.14
2022-10-17T11:44:05.381Z,1014.16
2022-10-17T11:45:07.092Z,1014.22
2022-10-17T11:46:06.606Z,1014.26
2022-10-17T11:47:05.385Z,1014.28
2022-10-17T11:48:07.097Z,1014.33
2022-10-17T11:49:07.136Z,1014.37
2022-10-17T11:52:05.373Z,1014.46
2022-10-17T11:53:07.088Z,1014.47
2022-10-17T11:54:05.368Z,1014.49
2022-10-17T11:55:07.125Z,1014.44
2022-10-17T11:56:05.370Z,1014.48
2022-10-17T11:57:05.370Z,1014.51
2022-10-17T11:58:07.086Z,1014.56
2022-10-17T11:59:07.097Z,1014.58
2022-10-17T12:00:07.106Z,1014.56
2022-10-17T12:01:07.129Z,1014.55
2022-10-17T12:02:07.182Z,1014.52
2022-10-17T12:03:07.097Z,1014.53
2022-10-17T12:04:07.164Z,1014.52
2022-10-17T12:05:07.115Z,1014.56
2022-10-17T12:06:07.116Z,1014.58
2022-10-17T12:07:07.105Z,1014.59
2022-10-17T12:08:07.140Z,1014.53
2022-10-17T12:09:07.109Z,1014.44
2022-10-17T12:10:07.105Z,1014.29
2022-10-17T12:11:07.118Z,1014.19
2022-10-17T12:12:07.104Z,1014.20
2022-10-17T12:13:07.125Z,1014.27
2022-10-17T12:14:07.569Z,1014.35
2022-10-17T12:15:06.623Z,1014.39
2022-10-17T12:16:06.354Z,1014.27
2022-10-17T12:17:07.112Z,1014.27
2022-10-17T12:18:07.115Z,1014.20
2022-10-17T12:19:08.115Z,1014.17
2022-10-17T12:20:07.131Z,1014.17
2022-10-17T12:21:07.142Z,1014.23
2022-10-17T12:22:07.120Z,1014.18
2022-10-17T12:23:07.141Z,1014.20
2022-10-17T12:24:07.114Z,1014.23
2022-10-17T12:25:07.167Z,1014.26
2022-10-17T12:26:07.119Z,1014.32
2022-10-17T12:27:07.116Z,1014.32
2022-10-17T12:28:07.135Z,1014.32
2022-10-17T12:29:07.151Z,1014.29
2022-10-17T12:30:06.333Z,1014.33
2022-10-17T12:31:07.164Z,1014.34
2022-10-17T12:32:05.334Z,1014.36
2022-10-17T12:33:08.268Z,1014.34
2022-10-17T12:34:05.366Z,1014.36
2022-10-17T12:35:05.327Z,1014.34
2022-10-17T12:36:05.351Z,1014.34
2022-10-17T12:37:05.329Z,1014.37
2022-10-17T12:38:07.147Z,1014.33
2022-10-17T12:39:05.332Z,1014.33
2022-10-17T12:40:05.318Z,1014.30
2022-10-17T12:41:05.322Z,1014.31
2022-10-17T12:42:05.379Z,1014.32
2022-10-17T12:43:07.150Z,1014.37
2022-10-17T12:44:05.315Z,1014.42
2022-10-17T12:45:05.317Z,1014.46
2022-10-17T12:46:05.323Z,1014.50
2022-10-17T12:47:07.160Z,1014.51
2022-10-17T12:48:05.308Z,1014.52
2022-10-17T12:49:07.138Z,1014.47
2022-10-17T12:50:07.146Z,1014.39
2022-10-17T12:52:07.143Z,1014.41
2022-10-17T12:53:06.686Z,1014.45
2022-10-17T12:54:07.145Z,1014.43
2022-10-17T12:55:14.657Z,1014.43
2022-10-17T12:56:06.309Z,1014.44
2022-10-17T12:57:05.298Z,1014.39
2022-10-17T12:58:07.162Z,1014.39
2022-10-17T12:59:07.147Z,1014.28
2022-10-17T13:00:07.148Z,1014.30
2022-10-17T13:01:24.526Z,1014.36
2022-10-17T13:02:05.390Z,1014.41
2022-10-17T13:03:07.179Z,1014.45
2022-10-17T13:04:07.187Z,1014.44
2022-10-17T13:05:07.150Z,1014.47
2022-10-17T13:06:07.197Z,1014.43
2022-10-17T13:07:07.156Z,1014.45
2022-10-17T13:08:07.167Z,1014.44
2022-10-17T13:09:07.215Z,1014.44
2022-10-17T13:10:05.449Z,1014.45
2022-10-17T13:11:07.182Z,1014.48
2022-10-17T13:12:07.164Z,1014.52
2022-10-17T13:13:07.160Z,1014.48
2022-10-17T13:14:07.177Z,1014.51
2022-10-17T13:15:06.289Z,1014.45
2022-10-17T13:16:07.166Z,1014.46
2022-10-17T13:17:05.281Z,1014.47
2022-10-17T13:18:07.185Z,1014.48
2022-10-17T13:19:07.188Z,1014.49
2022-10-17T13:20:05.280Z,1014.52
2022-10-17T13:21:05.298Z,1014.54
2022-10-17T13:22:07.424Z,1014.53
2022-10-17T13:23:05.275Z,1014.51
2022-10-17T13:24:07.183Z,1014.53
2022-10-17T13:25:06.285Z,1014.51
2022-10-17T13:26:06.367Z,1014.54
2022-10-17T13:27:05.284Z,1014.57
2022-10-17T13:28:06.483Z,1014.55
2022-10-17T13:29:07.240Z,1014.58
2022-10-17T13:30:06.690Z,1014.57
2022-10-17T13:31:07.317Z,1014.62
2022-10-17T13:32:05.269Z,1014.65
2022-10-17T13:33:07.221Z,1014.64
2022-10-17T13:34:05.268Z,1014.69
2022-10-17T13:35:06.268Z,1014.68
2022-10-17T13:36:06.706Z,1014.71
2022-10-17T13:37:07.211Z,1014.73
2022-10-17T13:38:05.275Z,1014.81
2022-10-17T13:39:05.874Z,1014.79
2022-10-17T13:40:17.489Z,1014.75
2022-10-17T13:41:33.650Z,1014.73
2022-10-17T13:42:07.213Z,1014.74
2022-10-17T13:43:05.251Z,1014.76
2022-10-17T13:44:05.264Z,1014.78
2022-10-17T13:45:05.259Z,1014.80
2022-10-17T13:46:25.581Z,1014.85
2022-10-17T13:47:05.257Z,1014.86
2022-10-17T13:48:06.718Z,1014.87
2022-10-17T13:49:05.251Z,1014.99
2022-10-17T13:50:12.750Z,1014.96
2022-10-17T13:51:10.504Z,1015.01
2022-10-17T13:52:07.201Z,1015.02
2022-10-17T13:53:07.202Z,1015.00
2022-10-17T13:54:07.200Z,1015.06
2022-10-17T13:55:07.208Z,1015.13
2022-10-17T13:56:27.335Z,1015.12
2022-10-17T13:57:05.257Z,1015.18
2022-10-17T13:58:07.206Z,1015.23
2022-10-17T13:59:07.228Z,1015.32
2022-10-17T14:00:10.027Z,1015.30
2022-10-17T14:01:07.262Z,1015.32
2022-10-17T14:02:07.212Z,1015.34
2022-10-17T14:03:07.206Z,1015.33
2022-10-17T14:04:10.253Z,1015.36
2022-10-17T14:05:22.581Z,1015.32
2022-10-17T14:07:07.212Z,1015.31
2022-10-17T14:08:12.756Z,1015.36
2022-10-17T14:09:07.218Z,1015.42
2022-10-17T14:10:07.214Z,1015.43
2022-10-17T14:11:06.726Z,1015.43
2022-10-17T14:12:06.716Z,1015.46
2022-10-17T14:13:06.726Z,1015.47
2022-10-17T14:14:06.719Z,1015.45
2022-10-17T14:15:11.047Z,1015.53
2022-10-17T14:16:05.217Z,1015.48
2022-10-17T14:17:05.230Z,1015.49
2022-10-17T14:18:07.769Z,1015.46
2022-10-17T14:19:06.737Z,1015.42
2022-10-17T14:21:36.800Z,1015.43
2022-10-17T14:22:05.233Z,1015.41
2022-10-17T14:23:22.480Z,1015.48
2022-10-17T14:24:05.207Z,1015.52
2022-10-17T14:25:06.741Z,1015.53
2022-10-17T14:26:06.196Z,1015.52
2022-10-17T14:27:06.760Z,1015.51
2022-10-17T14:28:06.201Z,1015.49
2022-10-17T14:29:06.898Z,1015.44
2022-10-17T14:30:06.735Z,1015.48
2022-10-17T14:31:06.747Z,1015.45
2022-10-17T14:32:06.771Z,1015.46
2022-10-17T14:33:06.742Z,1015.46
2022-10-17T14:34:05.188Z,1015.48
2022-10-17T14:35:24.414Z,1015.48
2022-10-17T14:36:06.774Z,1015.49
2022-10-17T14:37:05.180Z,1015.48
2022-10-17T14:38:05.180Z,1015.53
2022-10-17T14:39:05.173Z,1015.52
2022-10-17T14:40:06.753Z,1015.54
2022-10-17T14:41:40.792Z,1015.57
2022-10-17T14:42:05.177Z,1015.56
2022-10-17T14:43:06.742Z,1015.62
2022-10-17T14:44:06.767Z,1015.63
2022-10-17T14:45:05.247Z,1015.63
2022-10-17T14:46:06.745Z,1015.65
2022-10-17T14:47:30.644Z,1015.67
2022-10-17T14:48:05.165Z,1015.65
2022-10-17T14:49:05.155Z,1015.66
2022-10-17T14:50:05.153Z,1015.69
2022-10-17T14:51:06.761Z,1015.71
2022-10-17T14:52:07.918Z,1015.69
2022-10-17T14:53:05.152Z,1015.70
2022-10-17T14:54:05.710Z,1015.68
2022-10-17T14:55:06.779Z,1015.68
2022-10-17T14:56:06.145Z,1015.71
2022-10-17T14:57:06.783Z,1015.70
2022-10-17T14:58:05.143Z,1015.75
2022-10-17T14:59:11.771Z,1015.69
2022-10-17T15:00:05.131Z,1015.73
2022-10-17T15:01:06.781Z,1015.72
2022-10-17T15:02:06.793Z,1015.75
2022-10-17T15:03:06.175Z,1015.70
2022-10-17T15:04:06.780Z,1015.70
2022-10-17T15:05:12.109Z,1015.72
2022-10-17T15:06:06.769Z,1015.69
2022-10-17T15:07:06.783Z,1015.68
2022-10-17T15:08:06.780Z,1015.70
2022-10-17T15:09:06.770Z,1015.73
2022-10-17T15:10:06.782Z,1015.77
2022-10-17T15:11:06.765Z,1015.82
2022-10-17T15:12:06.781Z,1015.82
2022-10-17T15:14:05.101Z,1015.87
2022-10-17T15:15:06.857Z,1015.88
2022-10-17T15:16:06.771Z,1015.90
2022-10-17T15:17:06.811Z,1015.91
2022-10-17T15:18:06.780Z,1015.90
2022-10-17T15:19:05.091Z,1015.88
2022-10-17T15:20:05.180Z,1015.88
2022-10-17T15:21:17.666Z,1015.89
2022-10-17T15:22:05.088Z,1015.96
2022-10-17T15:23:06.310Z,1015.90
2022-10-17T15:24:05.078Z,1015.90
2022-10-17T15:25:05.081Z,1015.98
2022-10-17T15:26:06.840Z,1015.92
2022-10-17T15:27:06.821Z,1015.93
2022-10-17T15:28:07.062Z,1015.97
2022-10-17T15:29:06.896Z,1015.98
2022-10-17T15:30:06.789Z,1016.00
2022-10-17T15:31:06.793Z,1015.99
2022-10-17T15:32:06.804Z,1015.96
2022-10-17T15:33:06.829Z,1015.99
2022-10-17T15:34:06.800Z,1015.95
2022-10-17T15:35:06.791Z,1015.97
2022-10-17T15:36:06.787Z,1015.96
2022-10-17T15:37:06.789Z,1015.94
2022-10-17T15:38:06.800Z,1015.96
2022-10-17T15:39:06.791Z,1016.02
2022-10-17T15:40:06.792Z,1016.01
2022-10-17T15:41:06.798Z,1016.00
2022-10-17T15:42:06.799Z,1016.01
2022-10-17T15:43:06.807Z,1016.00
2022-10-17T15:44:06.799Z,1016.05
2022-10-17T15:46:06.808Z,1016.06
2022-10-17T15:47:06.796Z,1016.05
2022-10-17T15:48:06.817Z,1016.08
2022-10-17T15:49:06.823Z,1016.10
2022-10-17T15:50:06.804Z,1016.11
2022-10-17T15:51:06.834Z,1016.13
2022-10-17T15:52:06.837Z,1016.14
2022-10-17T15:53:06.824Z,1016.13
2022-10-17T15:54:06.879Z,1016.15
2022-10-17T15:55:06.820Z,1016.17
2022-10-17T15:56:05.004Z,1016.19
2022-10-17T15:57:06.846Z,1016.20
2022-10-17T15:58:06.863Z,1016.23
2022-10-17T15:59:06.835Z,1016.26
2022-10-17T16:00:06.810Z,1016.27
2022-10-17T16:12:14.379Z,1016.40
2022-10-17T16:13:14.222Z,1016.42
2022-10-17T16:14:14.229Z,1016.42
2022-10-17T16:15:14.213Z,1016.45
2022-10-17T16:16:14.215Z,1016.48
2022-10-17T16:17:14.224Z,1016.49
2022-10-17T16:18:14.210Z,1016.50
2022-10-17T16:19:14.212Z,1016.53
2022-10-17T16:20:14.222Z,1016.53
2022-10-17T16:21:14.215Z,1016.57
2022-10-17T16:22:14.227Z,1016.55
2022-10-17T16:23:14.216Z,1016.63
2022-10-17T16:24:13.574Z,1016.57
2022-10-17T16:25:14.239Z,1016.56
2022-10-17T16:26:12.586Z,1016.55
2022-10-17T16:27:12.563Z,1016.59
2022-10-17T16:28:12.575Z,1016.60
2022-10-17T16:29:12.632Z,1016.59
2022-10-17T16:30:14.283Z,1016.63
2022-10-17T16:31:12.560Z,1016.60
2022-10-17T16:32:12.560Z,1016.62
2022-10-17T16:33:14.244Z,1016.62
2022-10-17T16:34:12.544Z,1016.63
2022-10-17T16:35:14.241Z,1016.64
2022-10-17T16:36:12.545Z,1016.67